createdAt,value
2022-12-22T00:02:00.799Z,40.62
2022-12-22T00:04:46.388Z,41.57
2022-12-22T00:07:32.237Z,41.06
2022-12-22T00:10:17.807Z,39.60
2022-12-22T00:13:03.516Z,38.24
2022-12-22T00:15:52.793Z,40.65
2022-12-22T00:18:39.035Z,40.79
2022-12-22T00:21:24.728Z,39.62
2022-12-22T00:24:10.503Z,41.33
2022-12-22T00:26:56.257Z,41.52
2022-12-22T00:29:41.944Z,40.14
2022-12-22T00:32:32.375Z,39.62
2022-12-22T00:35:18.226Z,39.72
2022-12-22T00:38:03.684Z,39.65
2022-12-22T00:40:49.463Z,40.46
2022-12-22T00:43:35.121Z,40.02
2022-12-22T00:46:22.601Z,40.41
2022-12-22T00:49:08.444Z,40.29
2022-12-22T00:51:54.090Z,40.21
2022-12-22T00:54:41.540Z,40.34
2022-12-22T00:57:36.235Z,40.72
2022-12-22T01:00:23.685Z,41.83
2022-12-22T01:03:09.168Z,42.71
2022-12-22T01:05:54.709Z,42.70
2022-12-22T01:08:40.258Z,42.20
2022-12-22T01:11:26.437Z,41.27
2022-12-22T01:14:11.970Z,40.92
2022-12-22T01:16:57.288Z,40.83
2022-12-22T01:19:42.997Z,42.99
2022-12-22T01:22:39.748Z,43.78
2022-12-22T01:25:31.959Z,43.40
2022-12-22T01:28:17.571Z,41.59
2022-12-22T01:31:03.971Z,42.39
2022-12-22T01:33:49.637Z,41.52
2022-12-22T01:36:35.841Z,42.77
2022-12-22T01:39:22.248Z,43.61
2022-12-22T01:42:09.446Z,43.33
2022-12-22T01:44:55.146Z,43.11
2022-12-22T01:47:58.773Z,41.51
2022-12-22T01:50:49.446Z,40.75
2022-12-22T01:53:38.147Z,41.03
2022-12-22T01:56:23.902Z,41.58
2022-12-22T01:59:13.504Z,42.09
2022-12-22T02:02:01.111Z,42.14
2022-12-22T02:04:51.042Z,41.72
2022-12-22T02:07:55.995Z,42.27
2022-12-22T02:10:53.574Z,41.89
2022-12-22T02:14:11.608Z,42.26
2022-12-22T02:17:10.145Z,41.63
2022-12-22T02:20:07.634Z,41.91
2022-12-22T02:23:29.863Z,42.49
2022-12-22T02:26:29.270Z,41.52
2022-12-22T02:29:15.703Z,41.04
2022-12-22T02:32:01.489Z,40.64
2022-12-22T02:34:47.117Z,41.27
2022-12-22T02:37:54.021Z,40.31
2022-12-22T02:41:15.542Z,41.21
2022-12-22T02:44:01.252Z,41.77
2022-12-22T02:46:54.009Z,41.85
2022-12-22T02:49:55.845Z,39.97
2022-12-22T02:52:49.471Z,39.16
2022-12-22T02:55:36.567Z,40.30
2022-12-22T02:58:22.238Z,39.43
2022-12-22T03:01:08.480Z,40.35
2022-12-22T03:03:54.219Z,40.02
2022-12-22T03:06:39.732Z,38.80
2022-12-22T03:09:25.158Z,39.75
2022-12-22T03:12:10.765Z,40.17
2022-12-22T03:14:56.433Z,40.62
2022-12-22T03:17:42.235Z,40.62
2022-12-22T03:20:28.008Z,39.74
2022-12-22T03:23:13.710Z,40.89
2022-12-22T03:25:55.989Z,41.16
2022-12-22T03:28:26.690Z,41.23
2022-12-22T03:31:02.816Z,40.42
2022-12-22T03:33:30.662Z,40.79
2022-12-22T03:35:58.124Z,40.22
2022-12-22T03:38:25.502Z,39.88
2022-12-22T03:40:52.893Z,39.04
2022-12-22T03:43:38.655Z,39.61
2022-12-22T03:46:17.860Z,39.67
2022-12-22T03:49:05.767Z,39.49
2022-12-22T03:51:34.168Z,40.62
2022-12-22T03:54:01.301Z,40.76
2022-12-22T03:56:28.591Z,41.03
2022-12-22T03:58:55.684Z,40.88
2022-12-22T04:01:22.947Z,39.92
2022-12-22T04:03:50.668Z,40.14
2022-12-22T04:06:18.274Z,40.35
2022-12-22T04:08:45.577Z,40.33
2022-12-22T04:11:33.343Z,39.49
2022-12-22T04:14:00.356Z,38.61
2022-12-22T04:16:27.339Z,38.47
2022-12-22T04:18:54.274Z,38.51
2022-12-22T04:21:21.302Z,39.78
2022-12-22T04:23:51.401Z,39.08
2022-12-22T04:26:20.715Z,39.44
2022-12-22T04:28:47.806Z,39.79
2022-12-22T04:31:14.775Z,39.37
2022-12-22T04:33:41.809Z,40.12
2022-12-22T04:36:09.753Z,41.84
2022-12-22T04:38:37.149Z,42.81
2022-12-22T04:41:04.791Z,42.24
2022-12-22T04:43:32.066Z,41.94
2022-12-22T04:45:59.089Z,41.64
2022-12-22T04:48:27.734Z,41.77
2022-12-22T04:50:57.159Z,42.55
2022-12-22T04:53:25.575Z,42.96
2022-12-22T04:55:59.003Z,42.70
2022-12-22T04:58:26.048Z,43.43
2022-12-22T05:00:52.980Z,44.42
2022-12-22T05:03:20.073Z,44.28
2022-12-22T05:05:47.114Z,44.58
2022-12-22T05:08:14.005Z,45.08
2022-12-22T05:10:41.568Z,45.14
2022-12-22T05:13:08.383Z,45.47
2022-12-22T05:15:36.721Z,46.32
2022-12-22T05:18:04.503Z,46.08
2022-12-22T05:20:31.587Z,45.72
2022-12-22T05:22:58.950Z,44.45
2022-12-22T05:25:29.868Z,43.94
2022-12-22T05:27:58.408Z,44.44
2022-12-22T05:30:25.507Z,45.40
2022-12-22T05:32:52.521Z,45.99
2022-12-22T05:35:20.232Z,45.70
2022-12-22T05:37:47.163Z,45.32
2022-12-22T05:40:14.177Z,44.91
2022-12-22T05:42:41.154Z,44.74
2022-12-22T05:45:15.649Z,44.35
2022-12-22T05:47:44.208Z,44.84
2022-12-22T05:50:13.357Z,44.81
2022-12-22T05:52:40.724Z,44.00
2022-12-22T05:55:08.511Z,44.53
2022-12-22T05:57:35.979Z,44.74
2022-12-22T06:00:09.012Z,44.61
2022-12-22T06:02:40.284Z,44.47
2022-12-22T06:05:07.786Z,44.27
2022-12-22T06:07:35.018Z,44.55
2022-12-22T06:10:06.435Z,45.29
2022-12-22T06:12:38.494Z,44.68
2022-12-22T06:15:06.643Z,44.54
2022-12-22T06:17:34.943Z,44.14
2022-12-22T06:20:06.214Z,44.06
2022-12-22T06:22:34.113Z,44.48
2022-12-22T06:25:01.441Z,44.69
2022-12-22T06:27:28.381Z,45.18
2022-12-22T06:29:55.316Z,43.88
2022-12-22T06:32:22.385Z,43.64
2022-12-22T06:34:49.344Z,44.72
2022-12-22T06:37:16.296Z,45.80
2022-12-22T06:39:43.237Z,45.47
2022-12-22T06:42:29.634Z,45.97
2022-12-22T06:44:56.595Z,46.48
2022-12-22T06:47:23.585Z,46.58
2022-12-22T06:49:51.433Z,46.77
2022-12-22T06:52:18.325Z,46.24
2022-12-22T06:54:45.408Z,45.86
2022-12-22T06:57:12.597Z,45.22
2022-12-22T06:59:39.507Z,45.76
2022-12-22T07:02:06.975Z,45.58
2022-12-22T07:04:34.078Z,45.96
2022-12-22T07:07:00.971Z,44.65
2022-12-22T07:09:27.992Z,44.88
2022-12-22T07:11:54.996Z,44.52
2022-12-22T07:14:22.471Z,43.77
2022-12-22T07:16:49.590Z,44.11
2022-12-22T07:19:16.600Z,44.52
2022-12-22T07:21:43.594Z,45.60
2022-12-22T07:24:10.780Z,45.58
2022-12-22T07:26:37.770Z,45.17
2022-12-22T07:29:04.712Z,45.54
2022-12-22T07:31:31.646Z,46.94
2022-12-22T07:33:58.608Z,47.16
2022-12-22T07:36:25.683Z,46.87
2022-12-22T07:38:52.809Z,47.68
2022-12-22T07:41:39.186Z,47.80
2022-12-22T07:44:07.753Z,48.35
2022-12-22T07:46:36.729Z,47.74
2022-12-22T07:49:24.666Z,47.65
2022-12-22T07:51:52.045Z,45.16
2022-12-22T07:54:19.392Z,45.10
2022-12-22T07:56:47.204Z,46.04
2022-12-22T07:59:14.853Z,46.53
2022-12-22T08:01:42.548Z,46.42
2022-12-22T08:04:10.498Z,45.27
2022-12-22T08:06:38.402Z,44.93
2022-12-22T08:09:07.048Z,44.39
2022-12-22T08:11:34.504Z,43.09
2022-12-22T08:14:02.214Z,42.56
2022-12-22T08:16:30.113Z,42.33
2022-12-22T08:18:57.359Z,41.57
2022-12-22T08:21:24.594Z,41.31
2022-12-22T08:23:51.754Z,41.84
2022-12-22T08:26:25.363Z,42.70
2022-12-22T08:29:19.689Z,41.58
2022-12-22T08:31:47.176Z,40.72
2022-12-22T08:34:16.644Z,41.19
2022-12-22T08:36:49.280Z,41.15
2022-12-22T08:39:17.424Z,40.04
2022-12-22T08:41:50.583Z,39.57
2022-12-22T08:44:23.545Z,39.20
2022-12-22T08:46:51.760Z,38.32
2022-12-22T08:49:19.556Z,39.78
2022-12-22T08:51:47.637Z,39.87
2022-12-22T08:54:14.802Z,40.85
2022-12-22T08:56:42.639Z,40.21
2022-12-22T08:59:10.453Z,40.24
2022-12-22T09:01:39.420Z,39.54
2022-12-22T09:04:09.838Z,39.70
2022-12-22T09:06:41.179Z,39.08
2022-12-22T09:09:10.476Z,39.10
2022-12-22T09:11:37.590Z,38.29
2022-12-22T09:14:05.346Z,40.83
2022-12-22T09:16:33.981Z,40.32
2022-12-22T09:19:01.982Z,40.16
2022-12-22T09:21:30.051Z,39.17
2022-12-22T09:23:57.950Z,38.91
2022-12-22T09:26:26.884Z,39.05
2022-12-22T09:28:55.781Z,39.13
2022-12-22T09:31:23.990Z,39.08
2022-12-22T09:33:51.713Z,38.27
2022-12-22T09:36:27.610Z,37.25
2022-12-22T09:38:54.665Z,36.78
2022-12-22T09:41:34.995Z,35.52
2022-12-22T09:44:11.523Z,35.94
2022-12-22T09:46:39.876Z,35.34
2022-12-22T09:49:07.504Z,35.67
2022-12-22T09:51:41.876Z,35.22
2022-12-22T09:54:12.000Z,34.32
2022-12-22T09:56:39.237Z,34.19
2022-12-22T09:59:13.832Z,34.60
2022-12-22T10:01:59.341Z,30.38
2022-12-22T10:04:56.740Z,31.64
2022-12-22T10:07:50.170Z,29.45
2022-12-22T10:10:27.788Z,29.50
2022-12-22T10:12:58.078Z,29.64
2022-12-22T10:15:26.160Z,27.43
2022-12-22T10:18:09.055Z,26.87
2022-12-22T10:20:38.543Z,26.44
2022-12-22T10:23:18.550Z,28.53
2022-12-22T10:26:27.474Z,24.42
2022-12-22T10:28:49.404Z,27.82
2022-12-22T10:31:27.507Z,27.92
2022-12-22T10:33:57.449Z,26.66
2022-12-22T10:36:29.581Z,24.42
2022-12-22T10:39:19.331Z,25.65
2022-12-22T10:41:49.073Z,23.74
2022-12-22T10:44:16.068Z,24.63
2022-12-22T10:46:46.036Z,23.27
2022-12-22T10:49:22.164Z,24.07
2022-12-22T10:52:27.375Z,24.06
2022-12-22T10:55:18.392Z,24.33
2022-12-22T10:57:45.489Z,24.43
2022-12-22T11:00:32.286Z,24.30
2022-12-22T11:03:01.629Z,23.80
2022-12-22T11:05:30.940Z,22.61
2022-12-22T11:08:10.505Z,24.54
2022-12-22T11:10:55.527Z,23.85
2022-12-22T11:13:45.342Z,23.14
2022-12-22T11:16:21.796Z,22.68
2022-12-22T11:18:57.554Z,22.17
2022-12-22T11:21:39.651Z,20.22
2022-12-22T11:24:15.572Z,23.05
2022-12-22T11:26:54.793Z,23.98
2022-12-22T11:29:24.665Z,22.90
2022-12-22T11:32:19.214Z,22.94
2022-12-22T11:35:03.607Z,22.86
2022-12-22T11:37:33.171Z,23.82
2022-12-22T11:40:29.897Z,22.10
2022-12-22T11:43:16.070Z,23.43
2022-12-22T11:45:51.789Z,23.04
2022-12-22T11:48:43.513Z,22.99
2022-12-22T11:51:47.333Z,22.77
2022-12-22T11:54:39.910Z,22.56
2022-12-22T11:57:39.983Z,23.06
2022-12-22T12:00:18.396Z,23.89
2022-12-22T12:03:13.229Z,21.48
2022-12-22T12:05:43.283Z,22.66
2022-12-22T12:08:34.744Z,22.95
2022-12-22T12:11:26.533Z,23.09
2022-12-22T12:13:53.400Z,23.81
2022-12-22T12:16:41.389Z,23.68
2022-12-22T12:19:28.557Z,24.33
2022-12-22T12:22:01.901Z,24.36
2022-12-22T12:24:43.843Z,24.83
2022-12-22T12:27:32.633Z,24.24
2022-12-22T12:30:37.528Z,24.55
2022-12-22T12:33:09.923Z,23.39
2022-12-22T12:35:49.319Z,24.90
2022-12-22T12:41:20.985Z,25.53
2022-12-22T12:43:50.033Z,27.37
2022-12-22T12:46:51.339Z,27.17
2022-12-22T12:49:36.469Z,26.86
2022-12-22T12:52:07.838Z,28.87
2022-12-22T12:54:40.053Z,30.16
2022-12-22T12:57:24.003Z,30.25
2022-12-22T12:59:53.127Z,29.69
2022-12-22T13:02:29.886Z,30.61
2022-12-22T13:05:12.371Z,30.49
2022-12-22T13:08:06.753Z,29.75
2022-12-22T13:10:42.852Z,30.20
2022-12-22T13:13:34.754Z,29.93
2022-12-22T13:16:07.838Z,30.18
2022-12-22T13:18:34.797Z,30.08
2022-12-22T13:21:42.504Z,30.11
2022-12-22T13:24:24.726Z,30.95
2022-12-22T13:26:57.485Z,31.96
2022-12-22T13:29:47.192Z,31.53
2022-12-22T13:32:34.327Z,31.58
2022-12-22T13:35:34.711Z,32.72
2022-12-22T13:38:04.002Z,32.95
2022-12-22T13:40:32.740Z,33.54
2022-12-22T13:43:08.014Z,32.85
2022-12-22T13:45:42.361Z,34.22
2022-12-22T13:48:15.869Z,34.48
2022-12-22T13:50:55.331Z,34.36
2022-12-22T13:54:08.402Z,34.54
2022-12-22T13:56:41.112Z,35.24
2022-12-22T13:59:38.210Z,36.01
2022-12-22T14:02:08.276Z,36.99
2022-12-22T14:04:37.048Z,37.01
2022-12-22T14:07:15.076Z,35.99
2022-12-22T14:09:50.515Z,36.08
2022-12-22T14:12:33.419Z,36.50
2022-12-22T14:15:03.225Z,36.63
2022-12-22T14:17:33.385Z,37.55
2022-12-22T14:20:15.223Z,37.76
2022-12-22T14:22:54.839Z,38.03
2022-12-22T14:25:34.506Z,37.91
2022-12-22T14:28:02.936Z,37.94
2022-12-22T14:30:39.285Z,37.83
2022-12-22T14:33:33.766Z,37.11
2022-12-22T14:36:26.811Z,37.68
2022-12-22T14:39:03.782Z,37.48
2022-12-22T14:41:51.493Z,37.83
2022-12-22T14:44:20.943Z,37.31
2022-12-22T14:47:07.115Z,36.50
2022-12-22T14:49:35.468Z,37.62
2022-12-22T14:52:14.691Z,38.41
2022-12-22T14:54:47.298Z,36.79
2022-12-22T14:57:20.579Z,36.72
2022-12-22T15:00:08.785Z,38.40
2022-12-22T15:02:41.013Z,39.63
2022-12-22T15:05:25.557Z,39.92
2022-12-22T15:08:05.504Z,39.60
2022-12-22T15:10:44.404Z,37.72
2022-12-22T15:13:19.003Z,38.09
2022-12-22T15:15:46.084Z,38.95
2022-12-22T15:18:16.241Z,38.95
2022-12-22T15:20:43.410Z,38.44
2022-12-22T15:23:14.352Z,37.39
2022-12-22T15:25:41.334Z,37.86
2022-12-22T15:28:08.546Z,38.05
2022-12-22T15:30:36.369Z,38.66
2022-12-22T15:33:03.685Z,38.92
2022-12-22T15:35:35.145Z,36.26
2022-12-22T15:38:02.220Z,37.22
2022-12-22T15:40:29.430Z,37.37
2022-12-22T15:42:56.849Z,37.62
2022-12-22T15:45:23.882Z,36.27
2022-12-22T15:47:55.640Z,37.26
2022-12-22T15:50:33.533Z,38.24
2022-12-22T15:53:05.366Z,39.05
2022-12-22T15:55:32.502Z,38.11
2022-12-22T15:58:00.381Z,37.70
2022-12-22T16:00:27.409Z,38.33
2022-12-22T16:02:54.452Z,38.76
2022-12-22T16:05:21.659Z,39.14
2022-12-22T16:07:48.992Z,38.56
2022-12-22T16:10:28.337Z,38.60
2022-12-22T16:13:00.610Z,39.02
2022-12-22T16:15:31.313Z,39.06
2022-12-22T16:17:59.423Z,39.43
2022-12-22T16:20:34.367Z,39.37
2022-12-22T16:23:07.214Z,39.31
2022-12-22T16:25:39.025Z,38.73
2022-12-22T16:28:07.269Z,39.26
2022-12-22T16:30:34.915Z,39.36
2022-12-22T16:33:01.928Z,39.51
2022-12-22T16:35:30.549Z,39.88
2022-12-22T16:37:59.746Z,38.92
2022-12-22T16:40:27.967Z,39.48
2022-12-22T16:46:01.172Z,39.73
2022-12-22T16:48:35.453Z,39.68
2022-12-22T16:51:02.395Z,39.42
2022-12-22T16:53:29.375Z,39.28
2022-12-22T16:55:56.499Z,39.05
2022-12-22T16:58:23.566Z,40.67
2022-12-22T17:00:50.557Z,40.04
2022-12-22T17:03:24.590Z,39.41
2022-12-22T17:05:59.305Z,40.52
2022-12-22T17:08:30.091Z,40.97
2022-12-22T17:11:02.116Z,40.61
2022-12-22T17:13:35.792Z,40.76
2022-12-22T17:16:03.183Z,40.80
2022-12-22T17:18:31.496Z,39.13
2022-12-22T17:21:00.447Z,40.04
2022-12-22T17:23:51.581Z,40.18
2022-12-22T17:26:23.202Z,39.76
2022-12-22T17:28:51.273Z,40.06
2022-12-22T17:31:20.571Z,40.17
2022-12-22T17:33:48.600Z,40.55
2022-12-22T17:36:22.270Z,40.68
2022-12-22T17:38:49.294Z,40.88
2022-12-22T17:41:17.658Z,39.88
2022-12-22T17:43:46.388Z,41.14
2022-12-22T17:46:19.183Z,40.11
2022-12-22T17:48:47.410Z,40.71
2022-12-22T17:51:32.437Z,40.07
2022-12-22T17:54:00.052Z,40.76
2022-12-22T17:56:27.987Z,41.50
2022-12-22T17:58:55.094Z,41.25
2022-12-22T18:01:28.364Z,40.37
2022-12-22T18:03:56.276Z,40.25
2022-12-22T18:06:31.097Z,40.48
2022-12-22T18:08:58.224Z,40.86
2022-12-22T18:11:26.251Z,40.00
2022-12-22T18:13:54.279Z,40.66
2022-12-22T18:16:23.415Z,41.02
2022-12-22T18:18:51.518Z,39.12
2022-12-22T18:21:21.902Z,39.74
2022-12-22T18:23:50.980Z,40.17
2022-12-22T18:26:30.007Z,39.26
2022-12-22T18:28:57.558Z,40.33
2022-12-22T18:31:25.547Z,40.48
2022-12-22T18:33:53.083Z,41.51
2022-12-22T18:36:29.027Z,40.59
2022-12-22T18:38:56.934Z,40.53
2022-12-22T18:41:25.517Z,40.90
2022-12-22T18:43:53.127Z,40.72
2022-12-22T18:46:20.615Z,41.41
2022-12-22T18:48:48.741Z,40.52
2022-12-22T18:51:24.503Z,40.56
2022-12-22T18:53:53.750Z,41.51
2022-12-22T18:56:22.127Z,41.68
2022-12-22T18:58:49.529Z,40.32
2022-12-22T19:01:23.223Z,40.34
2022-12-22T19:03:52.548Z,40.85
2022-12-22T19:06:21.494Z,39.48
2022-12-22T19:08:49.687Z,39.36
2022-12-22T19:11:18.646Z,40.24
2022-12-22T19:13:48.123Z,40.85
2022-12-22T19:16:18.251Z,41.06
2022-12-22T19:18:45.523Z,40.24
2022-12-22T19:21:14.040Z,41.10
2022-12-22T19:23:41.503Z,40.42
2022-12-22T19:26:19.622Z,40.09
2022-12-22T19:28:49.457Z,40.68
2022-12-22T19:31:22.296Z,40.65
2022-12-22T19:33:49.725Z,40.94
2022-12-22T19:36:22.184Z,41.38
2022-12-22T19:38:51.085Z,40.07
2022-12-22T19:41:36.982Z,40.12
2022-12-22T19:44:04.464Z,40.74
2022-12-22T19:46:35.727Z,39.54
2022-12-22T19:49:02.906Z,40.03
2022-12-22T19:51:31.672Z,40.21
2022-12-22T19:53:58.754Z,40.31
2022-12-22T19:56:32.102Z,40.01
2022-12-22T19:59:01.008Z,40.80
2022-12-22T20:01:28.091Z,39.33
2022-12-22T20:03:56.355Z,39.75
2022-12-22T20:06:23.282Z,40.01
2022-12-22T20:08:50.304Z,40.22
2022-12-22T20:11:19.572Z,41.73
2022-12-22T20:13:48.238Z,40.04
2022-12-22T20:16:16.858Z,40.50
2022-12-22T20:18:46.393Z,39.13
2022-12-22T20:21:21.011Z,39.86
2022-12-22T20:23:48.391Z,39.80
2022-12-22T20:26:21.120Z,40.27
2022-12-22T20:28:49.906Z,40.15
2022-12-22T20:31:19.586Z,38.65
2022-12-22T20:33:46.729Z,39.60
2022-12-22T20:36:24.512Z,37.45
2022-12-22T20:38:53.348Z,39.34
2022-12-22T20:41:21.381Z,40.64
2022-12-22T20:43:49.112Z,39.11
2022-12-22T20:46:23.994Z,38.66
2022-12-22T20:48:56.263Z,38.34
2022-12-22T20:51:27.062Z,38.83
2022-12-22T20:53:54.371Z,39.46
2022-12-22T20:56:36.746Z,38.96
2022-12-22T20:59:20.302Z,39.56
2022-12-22T21:01:48.977Z,39.72
2022-12-22T21:04:16.364Z,40.42
2022-12-22T21:06:47.767Z,39.92
2022-12-22T21:09:16.247Z,39.94
2022-12-22T21:11:43.404Z,38.23
2022-12-22T21:14:10.987Z,38.80
2022-12-22T21:16:38.703Z,38.78
2022-12-22T21:19:06.035Z,39.05
2022-12-22T21:21:33.310Z,38.74
2022-12-22T21:24:00.460Z,39.20
2022-12-22T21:26:33.011Z,39.95
2022-12-22T21:29:02.689Z,38.82
2022-12-22T21:31:29.717Z,38.59
2022-12-22T21:33:56.895Z,38.88
2022-12-22T21:36:28.123Z,39.39
2022-12-22T21:38:58.762Z,39.95
2022-12-22T21:41:44.315Z,38.22
2022-12-22T21:44:12.802Z,39.79
2022-12-22T21:46:42.444Z,39.50
2022-12-22T21:49:19.878Z,38.15
2022-12-22T21:51:48.897Z,39.35
2022-12-22T21:54:17.457Z,40.15
2022-12-22T21:56:44.531Z,39.11
2022-12-22T21:59:11.521Z,40.09
2022-12-22T22:01:40.994Z,39.79
2022-12-22T22:04:08.872Z,39.84
2022-12-22T22:06:35.863Z,40.44
2022-12-22T22:09:05.291Z,40.40
2022-12-22T22:11:32.686Z,40.81
2022-12-22T22:13:59.669Z,40.17
2022-12-22T22:16:26.676Z,40.20
2022-12-22T22:18:53.647Z,40.00
2022-12-22T22:21:20.622Z,38.12
2022-12-22T22:23:47.564Z,36.84
2022-12-22T22:26:14.406Z,37.59
2022-12-22T22:28:41.249Z,38.05
2022-12-22T22:31:10.315Z,39.16
2022-12-22T22:33:37.681Z,39.28
2022-12-22T22:36:08.761Z,39.97
2022-12-22T22:38:36.091Z,38.13
2022-12-22T22:41:03.158Z,39.03
2022-12-22T22:43:30.171Z,39.56
2022-12-22T22:45:57.178Z,40.62
2022-12-22T22:48:24.339Z,40.11
2022-12-22T22:50:51.698Z,40.32
2022-12-22T22:53:18.685Z,40.35
2022-12-22T22:55:45.583Z,40.03
2022-12-22T22:58:12.505Z,40.18
2022-12-22T23:00:39.634Z,39.82
2022-12-22T23:03:06.747Z,40.09
2022-12-22T23:05:34.148Z,40.12
2022-12-22T23:08:01.103Z,38.89
2022-12-22T23:10:28.153Z,39.01
2022-12-22T23:12:55.423Z,40.24
2022-12-22T23:15:22.381Z,39.86
2022-12-22T23:17:51.981Z,39.49
2022-12-22T23:20:19.579Z,40.25
2022-12-22T23:22:46.539Z,38.96
2022-12-22T23:25:14.271Z,39.46
2022-12-22T23:27:41.222Z,39.18
2022-12-22T23:30:09.123Z,38.73
2022-12-22T23:32:36.056Z,39.06
2022-12-22T23:35:03.034Z,39.18
2022-12-22T23:37:30.029Z,40.55
2022-12-22T23:40:05.799Z,39.55
2022-12-22T23:42:44.040Z,38.53
2022-12-22T23:45:11.147Z,38.87
2022-12-22T23:47:38.080Z,38.20
2022-12-22T23:50:05.559Z,38.01
2022-12-22T23:52:32.494Z,39.21
2022-12-22T23:54:59.544Z,39.56
2022-12-22T23:57:26.560Z,39.02
2022-12-22T23:59:53.544Z,39.04
